Aérodrome :
LOGIN :

S'inscrire | Disclaimer

   EN    FR    IT 

 










Légende :    VFR   VFR Marginal   IFR   IFR Intensif   IFR Très Intensif
Visi : 
Plafond : 
>= 8 km
>= 3000ft
5 à 8 km
1000 à 3000 ft
1500m à 5 km
500 à 1000 ft
800 à 1500m
200 à 500 ft
< 800m
< 200 ft
Symboles :   Orages  Brouillard  Fortes neiges  Fortes précipitations  Vent > 20 kt
SIGMETs :   Divers  Orages  Givrage  Turbulence  Onde Orograph.  Cendres Volcan.






- Altitude de l'aérodrome : 995 ft
- Code IATA : KTW


EPKT - Katowice

DERNIER METAR :
  • 020730Z VRB02KT CAVOK 08/07 Q1010

METARs EXPIRÉS :
  • 020700Z VRB02KT 7000 NSC 07/06 Q1010
  • 020630Z 34002KT 7000 NSC 06/05 Q1010
  • 020600Z 02001KT 6000 NSC 06/05 Q1009
  • 020530Z VRB01KT 8000 NSC 06/05 Q1009
  • 020500Z VRB02KT 8000 NSC 06/05 Q1009
  • 020430Z 07003KT CAVOK 06/05 Q1009
  • 012100Z 09008KT 5000 BR NSC 08/07 Q1010
  • 020400Z VRB02KT CAVOK 06/06 Q1009
  • 020330Z 08003KT 8000 NSC 06/05 Q1009
  • 020300Z 07004KT 9000 NSC 06/05 Q1009

TAF TAF EPKT
Valide du 02 à 06h jusqu'au 03 à 06h UTC


020530Z 0206/0306 08006KT 8000 NSC
PROB40
TEMPO 0206/0207 3000 BR
PROB40
TEMPO 0213/0217 -SHRA BKN020CB
BECMG 0220/0223 4000 BR



MET'MAP, la Météo Aéronautique d'un coup d'oeil ! - Copyright ORBIFLY Décembre 2007 - Disclaimer

ORBIFLY MET'MAP TEAM :

Programmation & Développement : Alexandra Zaïnal
Sur une idée originale de : Baudouin d'Aumeries
Soutien technique & logistique : Manuel Goepfert
Assistance : Marc-Olivier Méhu




SOURCES & CREDITS :

   NOAA